createdAt,value
2018-09-10T00:02:17.587Z,13.00
2018-09-10T00:04:46.084Z,12.90
2018-09-10T00:07:14.576Z,13.10
2018-09-10T00:09:43.051Z,13.20
2018-09-10T00:12:11.611Z,13.00
2018-09-10T00:14:40.103Z,13.10
2018-09-10T00:17:08.645Z,13.20
2018-09-10T00:19:37.114Z,12.90
2018-09-10T00:22:05.650Z,12.90
2018-09-10T00:24:34.155Z,12.90
2018-09-10T00:27:02.682Z,12.70
2018-09-10T00:29:31.182Z,12.70
2018-09-10T00:32:00.323Z,12.70
2018-09-10T00:34:28.833Z,12.60
2018-09-10T00:36:57.329Z,12.60
2018-09-10T00:39:25.842Z,12.60
2018-09-10T00:41:54.318Z,12.70
2018-09-10T00:44:22.815Z,12.60
2018-09-10T00:46:51.329Z,12.60
2018-09-10T00:49:19.870Z,12.70
2018-09-10T00:51:48.619Z,13.00
2018-09-10T00:54:17.148Z,13.10
2018-09-10T00:56:45.635Z,12.90
2018-09-10T00:59:14.158Z,12.70
2018-09-10T01:01:42.681Z,12.60
2018-09-10T01:04:11.513Z,12.40
2018-09-10T01:06:40.016Z,12.40
2018-09-10T01:09:09.320Z,12.20
2018-09-10T01:11:38.432Z,12.40
2018-09-10T01:14:07.002Z,12.30
2018-09-10T01:16:35.488Z,12.40
2018-09-10T01:19:04.002Z,12.50
2018-09-10T01:21:32.511Z,12.50
2018-09-10T01:24:01.520Z,12.20
2018-09-10T01:26:30.040Z,12.20
2018-09-10T01:28:58.569Z,12.30
2018-09-10T01:31:27.067Z,12.00
2018-09-10T01:34:00.982Z,11.90
2018-09-10T01:36:29.488Z,11.90
2018-09-10T01:38:57.985Z,11.80
2018-09-10T01:41:26.431Z,11.90
2018-09-10T01:43:54.956Z,11.80
2018-09-10T01:46:23.437Z,11.70
2018-09-10T01:48:51.948Z,11.60
2018-09-10T01:51:20.879Z,11.50
2018-09-10T01:53:49.341Z,11.60
2018-09-10T01:56:17.811Z,11.60
2018-09-10T01:58:46.306Z,11.40
2018-09-10T02:01:14.752Z,11.50
2018-09-10T02:03:43.223Z,11.50
2018-09-10T02:06:11.679Z,11.60
2018-09-10T02:08:40.181Z,11.50
2018-09-10T02:11:08.635Z,11.50
2018-09-10T02:13:37.141Z,11.60
2018-09-10T02:16:07.494Z,11.50
2018-09-10T02:18:35.966Z,11.70
2018-09-10T02:21:04.504Z,11.80
2018-09-10T02:23:33.069Z,11.70
2018-09-10T02:26:01.529Z,11.60
2018-09-10T02:31:05.187Z,11.40
2018-09-10T02:33:33.706Z,11.20
2018-09-10T02:36:02.242Z,11.10
2018-09-10T02:38:30.832Z,10.90
2018-09-10T02:40:59.243Z,11.00
2018-09-10T02:43:27.744Z,11.00
2018-09-10T02:45:56.547Z,10.70
2018-09-10T02:48:25.043Z,11.00
2018-09-10T02:50:53.501Z,11.20
2018-09-10T02:53:21.974Z,11.10
2018-09-10T02:55:50.451Z,11.00
2018-09-10T02:58:18.930Z,11.00
2018-09-10T03:00:47.385Z,11.00
2018-09-10T03:03:15.877Z,11.20
2018-09-10T03:05:44.324Z,11.30
2018-09-10T03:08:12.866Z,11.20
2018-09-10T03:10:41.347Z,11.30
2018-09-10T03:13:09.830Z,11.30
2018-09-10T03:15:38.332Z,11.30
2018-09-10T03:18:07.146Z,11.30
2018-09-10T03:20:35.524Z,11.20
2018-09-10T03:23:04.011Z,11.20
2018-09-10T03:25:32.533Z,11.10
2018-09-10T03:28:01.263Z,11.10
2018-09-10T03:30:29.733Z,11.20
2018-09-10T03:32:58.190Z,11.10
2018-09-10T03:35:26.654Z,11.00
2018-09-10T03:37:55.524Z,11.00
2018-09-10T03:40:23.992Z,11.00
2018-09-10T03:42:52.526Z,11.00
2018-09-10T03:45:21.060Z,11.00
2018-09-10T03:47:49.514Z,11.10
2018-09-10T03:50:17.980Z,11.30
2018-09-10T03:52:46.414Z,11.30
2018-09-10T03:55:14.895Z,11.10
2018-09-10T03:57:43.338Z,10.90
2018-09-10T04:00:11.831Z,11.00
2018-09-10T04:02:40.306Z,11.10
2018-09-10T04:05:09.023Z,11.00
2018-09-10T04:07:37.715Z,10.70
2018-09-10T04:10:06.256Z,10.50
2018-09-10T04:12:34.724Z,10.80
2018-09-10T04:15:03.223Z,10.70
2018-09-10T04:17:31.701Z,10.70
2018-09-10T04:20:04.208Z,10.80
2018-09-10T04:22:32.659Z,10.70
2018-09-10T04:25:01.179Z,10.80
2018-09-10T04:27:29.646Z,10.90
2018-09-10T04:29:58.133Z,10.90
2018-09-10T04:32:26.591Z,10.70
2018-09-10T04:34:55.112Z,10.70
2018-09-10T04:37:23.592Z,10.70
2018-09-10T04:39:52.110Z,10.80
2018-09-10T04:42:23.524Z,10.90
2018-09-10T04:44:51.906Z,10.90
2018-09-10T04:47:20.375Z,11.00
2018-09-10T04:49:48.950Z,10.90
2018-09-10T04:52:17.369Z,10.80
2018-09-10T04:54:45.844Z,10.70
2018-09-10T04:57:14.307Z,10.60
2018-09-10T04:59:42.851Z,10.40
2018-09-10T05:02:11.441Z,10.40
2018-09-10T05:04:40.027Z,10.40
2018-09-10T05:07:08.759Z,10.60
2018-09-10T05:09:37.256Z,10.80
2018-09-10T05:12:05.735Z,11.00
2018-09-10T05:14:34.215Z,11.00
2018-09-10T05:17:03.306Z,10.80
2018-09-10T05:19:32.855Z,10.80
2018-09-10T05:22:01.431Z,11.10
2018-09-10T05:24:29.825Z,10.90
2018-09-10T05:26:58.318Z,10.80
2018-09-10T05:29:26.855Z,10.90
2018-09-10T05:31:55.347Z,10.80
2018-09-10T05:34:23.820Z,11.00
2018-09-10T05:36:52.339Z,11.10
2018-09-10T05:39:20.874Z,11.00
2018-09-10T05:41:49.454Z,11.10
2018-09-10T05:44:17.903Z,11.20
2018-09-10T05:46:46.408Z,11.30
2018-09-10T05:49:14.848Z,11.50
2018-09-10T05:51:43.338Z,11.60
2018-09-10T05:54:11.776Z,11.70
2018-09-10T05:56:40.283Z,11.90
2018-09-10T05:59:08.810Z,12.00
2018-09-10T06:01:37.330Z,12.10
2018-09-10T06:04:05.788Z,12.20
2018-09-10T06:06:34.312Z,12.30
2018-09-10T06:09:02.836Z,12.50
2018-09-10T06:11:31.312Z,12.60
2018-09-10T06:13:59.763Z,12.70
2018-09-10T06:16:28.230Z,12.80
2018-09-10T06:18:56.737Z,12.90
2018-09-10T06:21:25.240Z,13.00
2018-09-10T06:23:53.698Z,13.00
2018-09-10T06:26:22.256Z,13.00
2018-09-10T06:28:50.758Z,13.00
2018-09-10T06:31:19.269Z,13.00
2018-09-10T06:33:47.739Z,13.10
2018-09-10T06:36:16.247Z,13.20
2018-09-10T06:38:44.699Z,13.40
2018-09-10T06:41:13.177Z,13.70
2018-09-10T06:43:41.654Z,13.70
2018-09-10T06:46:10.374Z,13.90
2018-09-10T06:48:39.115Z,14.00
2018-09-10T06:51:07.828Z,14.10
2018-09-10T06:53:36.364Z,14.40
2018-09-10T06:56:05.499Z,14.50
2018-09-10T06:58:35.193Z,14.50
2018-09-10T07:01:03.687Z,14.60
2018-09-10T07:03:32.135Z,14.60
2018-09-10T07:06:00.674Z,14.80
2018-09-10T07:08:29.168Z,15.00
2018-09-10T07:10:57.668Z,15.10
2018-09-10T07:13:26.752Z,15.30
2018-09-10T07:15:55.292Z,15.50
2018-09-10T07:18:23.775Z,15.70
2018-09-10T07:20:52.439Z,15.90
2018-09-10T07:23:21.387Z,16.10
2018-09-10T07:25:49.900Z,16.30
2018-09-10T07:28:18.378Z,16.50
2018-09-10T07:30:46.863Z,16.80
2018-09-10T07:33:15.384Z,16.90
2018-09-10T07:35:44.066Z,17.00
2018-09-10T07:38:12.674Z,17.00
2018-09-10T07:40:41.417Z,17.10
2018-09-10T07:43:09.881Z,17.20
2018-09-10T07:45:38.360Z,17.40
2018-09-10T07:48:06.826Z,17.40
2018-09-10T07:50:35.297Z,17.60
2018-09-10T07:53:03.759Z,17.80
2018-09-10T07:55:32.244Z,17.90
2018-09-10T07:58:00.677Z,18.10
2018-09-10T08:00:29.121Z,18.30
2018-09-10T08:02:57.703Z,18.40
2018-09-10T08:05:26.435Z,18.40
2018-09-10T08:07:54.939Z,18.50
2018-09-10T08:10:23.421Z,18.80
2018-09-10T08:12:51.925Z,18.70
2018-09-10T08:15:20.414Z,19.00
2018-09-10T08:17:48.881Z,19.20
2018-09-10T08:20:17.351Z,19.40
2018-09-10T08:22:45.864Z,19.60
2018-09-10T08:25:14.335Z,19.80
2018-09-10T08:27:42.873Z,19.90
2018-09-10T08:30:11.707Z,20.00
2018-09-10T08:32:40.188Z,20.20
2018-09-10T08:35:08.731Z,20.20
2018-09-10T08:37:37.250Z,19.70
2018-09-10T08:40:06.396Z,20.00
2018-09-10T08:42:34.889Z,20.40
2018-09-10T08:45:03.351Z,20.60
2018-09-10T08:47:31.852Z,20.70
2018-09-10T08:50:00.368Z,20.60
2018-09-10T08:52:28.879Z,20.70
2018-09-10T08:54:57.665Z,20.40
2018-09-10T08:57:25.890Z,20.70
2018-09-10T08:59:54.346Z,20.80
2018-09-10T09:02:22.981Z,20.90
2018-09-10T09:04:51.454Z,20.90
2018-09-10T09:07:20.200Z,21.10
2018-09-10T09:09:48.630Z,21.20
2018-09-10T09:12:17.095Z,21.30
2018-09-10T09:14:45.554Z,21.40
2018-09-10T09:17:14.011Z,21.50
2018-09-10T09:19:42.523Z,21.40
2018-09-10T09:22:10.987Z,21.50
2018-09-10T09:24:39.447Z,21.60
2018-09-10T09:27:07.957Z,21.70
2018-09-10T09:29:36.477Z,21.80
2018-09-10T09:32:05.003Z,21.90
2018-09-10T09:34:38.928Z,22.10
2018-09-10T09:37:12.955Z,22.20
2018-09-10T09:39:46.888Z,22.40
2018-09-10T09:42:20.828Z,22.30
2018-09-10T09:44:54.651Z,22.50
2018-09-10T09:47:23.132Z,22.50
2018-09-10T09:49:51.575Z,22.60
2018-09-10T09:52:20.037Z,22.50
2018-09-10T09:54:48.507Z,22.70
2018-09-10T09:57:16.958Z,22.90
2018-09-10T09:59:45.405Z,23.00
2018-09-10T10:02:20.507Z,22.90
2018-09-10T10:04:49.009Z,23.10
2018-09-10T10:07:17.966Z,23.20
2018-09-10T10:09:46.428Z,23.10
2018-09-10T10:12:15.093Z,23.10
2018-09-10T10:14:43.515Z,23.10
2018-09-10T10:17:12.035Z,23.20
2018-09-10T10:19:40.515Z,23.20
2018-09-10T10:22:09.076Z,23.20
2018-09-10T10:24:37.511Z,23.30
2018-09-10T10:27:06.036Z,23.30
2018-09-10T10:29:34.473Z,23.00
2018-09-10T10:32:02.955Z,22.80
2018-09-10T10:34:31.383Z,23.00
2018-09-10T10:36:59.863Z,23.20
2018-09-10T10:39:28.303Z,23.30
2018-09-10T10:41:56.783Z,23.40
2018-09-10T10:44:25.282Z,23.40
2018-09-10T10:46:53.770Z,23.40
2018-09-10T10:49:22.235Z,23.50
2018-09-10T10:51:51.205Z,23.60
2018-09-10T10:54:19.733Z,23.70
2018-09-10T10:56:48.208Z,23.80
2018-09-10T10:59:17.034Z,23.80
2018-09-10T11:01:45.479Z,24.00
2018-09-10T11:04:14.000Z,24.20
2018-09-10T11:06:42.431Z,24.20
2018-09-10T11:09:10.882Z,24.20
2018-09-10T11:11:39.412Z,24.10
2018-09-10T11:14:07.917Z,24.00
2018-09-10T11:16:36.452Z,24.10
2018-09-10T11:19:05.171Z,24.20
2018-09-10T11:21:33.644Z,24.30
2018-09-10T11:24:02.156Z,24.50
2018-09-10T11:26:30.645Z,24.50
2018-09-10T11:28:59.144Z,24.50
2018-09-10T11:31:27.681Z,24.50
2018-09-10T11:33:56.178Z,24.40
2018-09-10T11:36:24.637Z,24.40
2018-09-10T11:38:53.103Z,24.50
2018-09-10T11:41:21.563Z,24.60
2018-09-10T11:43:50.058Z,24.70
2018-09-10T11:46:18.529Z,24.90
2018-09-10T11:48:46.983Z,25.00
2018-09-10T11:51:15.494Z,25.00
2018-09-10T11:53:43.992Z,25.00
2018-09-10T11:56:12.436Z,25.30
2018-09-10T11:58:40.915Z,25.50
2018-09-10T12:01:09.407Z,25.70
2018-09-10T12:03:37.924Z,25.80
2018-09-10T12:06:06.510Z,26.30
2018-09-10T12:08:35.019Z,26.30
2018-09-10T12:11:03.502Z,26.20
2018-09-10T12:13:32.031Z,26.40
2018-09-10T12:16:00.466Z,26.60
2018-09-10T12:18:28.936Z,26.90
2018-09-10T12:20:57.405Z,27.10
2018-09-10T12:23:25.925Z,27.00
2018-09-10T12:25:54.405Z,27.10
2018-09-10T12:28:22.895Z,27.30
2018-09-10T12:30:51.343Z,27.50
2018-09-10T12:33:19.811Z,27.80
2018-09-10T12:35:48.276Z,28.00
2018-09-10T12:38:16.763Z,28.10
2018-09-10T12:40:45.216Z,27.80
2018-09-10T12:43:13.685Z,27.70
2018-09-10T12:45:42.153Z,27.80
2018-09-10T12:48:10.654Z,28.00
2018-09-10T12:50:39.185Z,28.30
2018-09-10T12:53:07.942Z,28.30
2018-09-10T12:59:40.306Z,28.20
2018-09-10T13:02:08.758Z,28.40
2018-09-10T13:04:37.239Z,28.70
2018-09-10T13:07:05.987Z,28.90
2018-09-10T13:09:34.445Z,29.20
2018-09-10T13:12:02.959Z,29.00
2018-09-10T13:14:31.427Z,28.80
2018-09-10T13:16:59.884Z,28.90
2018-09-10T13:19:28.415Z,28.70
2018-09-10T13:21:56.904Z,28.60
2018-09-10T13:24:25.415Z,28.80
2018-09-10T13:26:54.221Z,28.80
2018-09-10T13:29:22.726Z,28.70
2018-09-10T13:31:51.183Z,28.90
2018-09-10T13:34:19.691Z,28.70
2018-09-10T13:36:48.230Z,28.80
2018-09-10T13:39:16.653Z,28.60
2018-09-10T13:41:45.111Z,28.40
2018-09-10T13:44:13.607Z,28.20
2018-09-10T13:46:42.079Z,28.10
2018-09-10T13:49:10.544Z,28.10
2018-09-10T13:51:39.006Z,28.10
2018-09-10T13:54:07.506Z,28.30
2018-09-10T13:56:35.988Z,28.20
2018-09-10T13:59:04.494Z,28.10
2018-09-10T14:01:33.013Z,27.70
2018-09-10T14:04:01.490Z,27.60
2018-09-10T14:06:29.962Z,27.80
2018-09-10T14:08:58.486Z,27.80
2018-09-10T14:11:27.010Z,27.80
2018-09-10T14:13:55.523Z,27.90
2018-09-10T14:16:23.987Z,27.80
2018-09-10T14:18:52.488Z,27.80
2018-09-10T14:21:20.964Z,27.70
2018-09-10T14:23:49.492Z,27.80
2018-09-10T14:26:18.037Z,27.80
2018-09-10T14:28:46.615Z,27.60
2018-09-10T14:31:15.154Z,27.50
2018-09-10T14:33:43.689Z,27.40
2018-09-10T14:36:12.194Z,27.40
2018-09-10T14:38:40.676Z,27.50
2018-09-10T14:41:09.239Z,27.70
2018-09-10T14:43:37.694Z,27.60
2018-09-10T14:46:06.164Z,27.70
2018-09-10T14:48:34.682Z,27.70
2018-09-10T14:51:03.173Z,27.60
2018-09-10T14:53:31.672Z,27.50
2018-09-10T14:56:00.141Z,27.40
2018-09-10T14:58:28.762Z,27.40
2018-09-10T15:00:57.247Z,27.40
2018-09-10T15:03:25.717Z,27.60
2018-09-10T15:05:54.222Z,27.60
2018-09-10T15:08:22.628Z,27.60
2018-09-10T15:10:51.139Z,27.60
2018-09-10T15:13:19.615Z,27.70
2018-09-10T15:15:48.438Z,27.70
2018-09-10T15:18:16.891Z,27.70
2018-09-10T15:20:45.380Z,27.60
2018-09-10T15:23:13.894Z,27.60
2018-09-10T15:25:42.415Z,27.50
2018-09-10T15:28:10.925Z,27.50
2018-09-10T15:30:39.624Z,27.40
2018-09-10T15:33:08.075Z,27.40
2018-09-10T15:35:36.550Z,27.40
2018-09-10T15:38:05.167Z,27.40
2018-09-10T15:40:33.899Z,27.30
2018-09-10T15:43:02.486Z,27.30
2018-09-10T15:45:30.992Z,27.30
2018-09-10T15:47:59.459Z,27.30
2018-09-10T15:50:27.965Z,27.30
2018-09-10T15:52:56.430Z,27.30
2018-09-10T15:55:24.935Z,27.10
2018-09-10T15:57:53.380Z,27.10
2018-09-10T16:00:21.903Z,27.10
2018-09-10T16:02:50.371Z,27.00
2018-09-10T16:05:18.990Z,27.00
2018-09-10T16:07:47.480Z,26.90
2018-09-10T16:10:15.979Z,27.00
2018-09-10T16:12:44.476Z,27.00
2018-09-10T16:15:12.994Z,27.00
2018-09-10T16:17:41.728Z,27.00
2018-09-10T16:20:10.275Z,27.10
2018-09-10T16:22:38.769Z,27.20
2018-09-10T16:25:07.268Z,27.10
2018-09-10T16:27:35.789Z,27.10
2018-09-10T16:30:04.335Z,27.00
2018-09-10T16:32:32.850Z,26.80
2018-09-10T16:35:01.324Z,26.80
2018-09-10T16:37:30.123Z,26.70
2018-09-10T16:39:58.629Z,26.60
2018-09-10T16:42:27.131Z,26.50
2018-09-10T16:44:55.594Z,26.50
2018-09-10T16:47:24.141Z,26.30
2018-09-10T16:49:52.665Z,26.40
2018-09-10T16:52:21.153Z,26.30
2018-09-10T16:54:49.723Z,26.30
2018-09-10T16:57:18.143Z,26.30
2018-09-10T16:59:46.599Z,26.30
2018-09-10T17:02:15.124Z,26.20
2018-09-10T17:04:43.649Z,26.10
2018-09-10T17:07:12.175Z,26.00
2018-09-10T17:09:40.683Z,26.00
2018-09-10T17:12:09.263Z,25.90
2018-09-10T17:14:37.999Z,26.00
2018-09-10T17:17:07.460Z,25.90
2018-09-10T17:19:36.463Z,25.80
2018-09-10T17:22:05.441Z,25.80
2018-09-10T17:24:33.922Z,25.80
2018-09-10T17:27:02.779Z,25.80
2018-09-10T17:29:31.283Z,25.70
2018-09-10T17:31:59.759Z,25.50
2018-09-10T17:34:28.208Z,25.20
2018-09-10T17:36:56.698Z,24.90
2018-09-10T17:39:25.189Z,24.80
2018-09-10T17:41:53.679Z,24.60
2018-09-10T17:44:22.180Z,24.40
2018-09-10T17:46:50.736Z,24.40
2018-09-10T17:49:19.243Z,24.30
2018-09-10T17:51:47.831Z,24.30
2018-09-10T17:54:16.355Z,24.10
2018-09-10T17:56:45.350Z,23.90
2018-09-10T17:59:13.801Z,23.90
2018-09-10T18:01:42.303Z,24.00
2018-09-10T18:04:10.814Z,23.90
2018-09-10T18:06:39.310Z,23.70
2018-09-10T18:09:09.468Z,23.60
2018-09-10T18:11:37.999Z,23.50
2018-09-10T18:14:06.517Z,23.60
2018-09-10T18:16:35.014Z,23.40
2018-09-10T18:19:03.472Z,23.40
2018-09-10T18:21:33.322Z,23.30
2018-09-10T18:24:01.782Z,23.20
2018-09-10T18:26:30.306Z,23.10
2018-09-10T18:28:58.863Z,23.10
2018-09-10T18:31:27.346Z,23.00
2018-09-10T18:33:55.817Z,22.90
2018-09-10T18:36:24.314Z,22.70
2018-09-10T18:38:52.803Z,22.60
2018-09-10T18:41:21.548Z,22.70
2018-09-10T18:43:50.451Z,22.60
2018-09-10T18:46:19.526Z,22.60
2018-09-10T18:48:48.017Z,22.30
2018-09-10T18:51:16.501Z,22.30
2018-09-10T18:53:44.964Z,22.20
2018-09-10T18:56:13.467Z,22.20
2018-09-10T18:58:42.005Z,22.10
2018-09-10T19:01:10.671Z,22.10
2018-09-10T19:03:38.998Z,22.10
2018-09-10T19:06:07.522Z,21.90
2018-09-10T19:08:36.152Z,21.90
2018-09-10T19:11:04.878Z,21.90
2018-09-10T19:13:33.436Z,21.70
2018-09-10T19:16:02.631Z,21.70
2018-09-10T19:18:36.579Z,21.60
2018-09-10T19:21:05.098Z,21.70
2018-09-10T19:23:34.621Z,21.50
2018-09-10T19:26:03.455Z,21.40
2018-09-10T19:28:32.475Z,21.40
2018-09-10T19:31:01.262Z,21.30
2018-09-10T19:33:29.814Z,21.40
2018-09-10T19:35:58.292Z,21.20
2018-09-10T19:38:26.877Z,21.20
2018-09-10T19:40:55.968Z,21.00
2018-09-10T19:43:24.506Z,21.00
2018-09-10T19:45:53.012Z,21.00
2018-09-10T19:48:21.744Z,20.90
2018-09-10T19:50:50.305Z,20.90
2018-09-10T19:53:18.840Z,20.90
2018-09-10T19:55:47.325Z,20.90
2018-09-10T19:58:15.845Z,20.70
2018-09-10T20:00:44.298Z,20.70
2018-09-10T20:03:12.788Z,20.80
2018-09-10T20:05:41.260Z,20.70
2018-09-10T20:08:09.787Z,20.80
2018-09-10T20:10:38.258Z,20.60
2018-09-10T20:13:06.810Z,20.60
2018-09-10T20:15:35.338Z,20.70
2018-09-10T20:18:03.899Z,20.70
2018-09-10T20:20:32.422Z,20.60
2018-09-10T20:23:00.967Z,20.50
2018-09-10T20:25:29.445Z,20.50
2018-09-10T20:27:58.056Z,20.50
2018-09-10T20:30:26.518Z,20.60
2018-09-10T20:32:55.028Z,20.50
2018-09-10T20:35:23.507Z,20.60
2018-09-10T20:37:52.344Z,20.70
2018-09-10T20:40:21.071Z,20.50
2018-09-10T20:42:49.563Z,20.40
2018-09-10T20:45:18.119Z,20.50
2018-09-10T20:47:46.607Z,20.20
2018-09-10T20:50:15.353Z,20.20
2018-09-10T20:52:43.880Z,20.00
2018-09-10T20:55:12.319Z,19.90
2018-09-10T20:57:40.897Z,19.90
2018-09-10T21:00:09.430Z,19.80
2018-09-10T21:02:37.983Z,19.80
2018-09-10T21:05:06.542Z,19.80
2018-09-10T21:07:35.157Z,19.70
2018-09-10T21:10:03.627Z,19.60
2018-09-10T21:12:32.506Z,19.50
2018-09-10T21:15:00.973Z,19.50
2018-09-10T21:17:29.477Z,19.30
2018-09-10T21:19:58.070Z,19.40
2018-09-10T21:22:26.567Z,19.40
2018-09-10T21:24:55.088Z,19.20
2018-09-10T21:27:30.295Z,19.20
2018-09-10T21:29:58.755Z,19.00
2018-09-10T21:32:27.263Z,18.90
2018-09-10T21:34:55.738Z,18.70
2018-09-10T21:37:24.219Z,18.80
2018-09-10T21:39:52.682Z,18.80
2018-09-10T21:42:21.177Z,18.90
2018-09-10T21:44:49.643Z,18.70
2018-09-10T21:47:18.130Z,18.70
2018-09-10T21:49:46.589Z,18.60
2018-09-10T21:52:15.079Z,18.60
2018-09-10T21:54:43.558Z,18.40
2018-09-10T21:57:12.036Z,18.40
2018-09-10T21:59:41.040Z,18.30
2018-09-10T22:02:09.516Z,18.20
2018-09-10T22:04:38.051Z,17.90
2018-09-10T22:07:06.260Z,17.90
2018-09-10T22:09:35.016Z,17.80
2018-09-10T22:12:04.450Z,17.90
2018-09-10T22:14:33.949Z,18.10
2018-09-10T22:17:02.801Z,18.30
2018-09-10T22:19:31.632Z,18.20
2018-09-10T22:22:00.120Z,18.30
2018-09-10T22:24:28.613Z,18.10
2018-09-10T22:26:57.125Z,17.90
2018-09-10T22:29:25.892Z,17.70
2018-09-10T22:31:54.391Z,17.50
2018-09-10T22:34:22.930Z,17.30
2018-09-10T22:36:51.417Z,17.30
2018-09-10T22:39:19.899Z,17.20
2018-09-10T22:41:48.653Z,17.20
2018-09-10T22:44:17.209Z,17.40
2018-09-10T22:46:45.641Z,17.40
2018-09-10T22:49:14.131Z,17.30
2018-09-10T22:51:42.615Z,17.20
2018-09-10T22:54:11.115Z,17.10
2018-09-10T22:56:39.577Z,17.10
2018-09-10T22:59:08.101Z,16.80
2018-09-10T23:01:36.572Z,16.80
2018-09-10T23:04:05.104Z,16.70
2018-09-10T23:06:33.608Z,16.70
2018-09-10T23:09:02.154Z,16.80
2018-09-10T23:11:30.652Z,16.80
2018-09-10T23:13:59.159Z,17.00
2018-09-10T23:16:27.643Z,17.00
2018-09-10T23:18:56.121Z,17.00
2018-09-10T23:21:24.651Z,16.80
2018-09-10T23:23:53.150Z,16.80
2018-09-10T23:26:21.981Z,17.00
2018-09-10T23:28:50.476Z,16.90
2018-09-10T23:31:18.970Z,17.00
2018-09-10T23:33:47.475Z,17.10
2018-09-10T23:36:15.920Z,17.00
2018-09-10T23:38:44.419Z,17.00
2018-09-10T23:41:12.914Z,16.80
2018-09-10T23:43:41.404Z,16.60
2018-09-10T23:46:09.903Z,16.50
2018-09-10T23:48:38.420Z,16.40
2018-09-10T23:51:06.927Z,16.00
2018-09-10T23:53:35.427Z,15.80
2018-09-10T23:56:03.916Z,15.70
2018-09-10T23:58:32.410Z,15.80
